Time;durP1;ratioP1;P1;durP2;ratioP2;P2;SDS_P1;SDS_P2;PMS_P1;PMS_P2;Temp;Humidity;BMP_temperature;BMP_pressure;BME280_temperature;BME280_humidity;BME280_pressure;Samples;Min_cycle;Max_cycle;Signal;HPM_P1;HPM_P2
2023/07/24 00:01:25;;;;;;;22.42;14.65;;;27.50;99.90;;;;;;4887562;29;20115;-93
2023/07/24 00:03:54;;;;;;;24.30;15.05;;;27.50;99.90;;;;;;4903352;29;20096;-92
2023/07/24 00:06:20;;;;;;;19.58;14.50;;;27.40;99.90;;;;;;4887673;29;20474;-93
2023/07/24 00:08:50;;;;;;;21.33;14.93;;;27.40;99.90;;;;;;4904071;29;20040;-92
2023/07/24 00:11:17;;;;;;;21.40;15.77;;;27.40;99.90;;;;;;4903806;29;20032;-92
2023/07/24 00:13:44;;;;;;;15.20;13.68;;;27.40;99.90;;;;;;4918803;29;20052;-94
2023/07/24 00:16:11;;;;;;;24.15;14.70;;;27.40;99.90;;;;;;4920867;29;20032;-92
2023/07/24 00:18:37;;;;;;;15.75;14.00;;;27.40;99.90;;;;;;4920980;29;20460;-93
2023/07/24 00:21:04;;;;;;;21.30;14.25;;;27.50;99.90;;;;;;4923236;29;20127;-92
2023/07/24 00:23:33;;;;;;;15.80;14.23;;;27.50;99.90;;;;;;4907695;29;20044;-92
2023/07/24 00:26:00;;;;;;;21.92;15.93;;;27.30;99.90;;;;;;4919806;29;20477;-92
2023/07/24 00:28:26;;;;;;;18.88;15.75;;;27.20;99.90;;;;;;4923151;29;20528;-92
2023/07/24 00:30:52;;;;;;;21.80;15.65;;;27.20;99.90;;;;;;4913568;29;20063;-92
2023/07/24 00:33:19;;;;;;;19.05;15.15;;;27.00;99.90;;;;;;4938972;29;20154;-92
2023/07/24 00:35:46;;;;;;;21.02;15.07;;;26.90;99.90;;;;;;4938623;29;20484;-92
2023/07/24 10:59:19;;;;;;;27.40;24.88;;;41.00;74.50;;;;;;5096239;27;20907;-93
2023/07/24 11:01:46;;;;;;;27.02;24.92;;;40.40;74.10;;;;;;5072117;28;20103;-93
2023/07/24 11:04:12;;;;;;;27.73;25.05;;;40.70;73.00;;;;;;5085327;28;20035;-93
2023/07/24 11:06:39;;;;;;;26.98;25.02;;;39.80;73.00;;;;;;5090192;28;20020;-92
2023/07/24 11:09:06;;;;;;;27.83;25.00;;;39.70;74.40;;;;;;5073525;28;20024;-92
2023/07/24 11:11:36;;;;;;;27.85;25.63;;;39.70;73.00;;;;;;5091941;28;20039;-92
2023/07/24 11:14:03;;;;;;;27.23;25.27;;;39.70;74.00;;;;;;5090767;28;20093;-94
2023/07/24 11:16:31;;;;;;;28.15;25.65;;;39.50;73.30;;;;;;5070508;28;20029;-95
2023/07/24 11:18:57;;;;;;;28.08;25.98;;;39.70;74.10;;;;;;5088591;28;20048;-94
2023/07/24 11:21:24;;;;;;;28.10;25.25;;;39.80;73.40;;;;;;5087346;28;20032;-94
2023/07/24 11:23:53;;;;;;;27.77;25.70;;;39.40;71.60;;;;;;5093487;28;20035;-93
2023/07/24 11:26:21;;;;;;;27.63;25.63;;;39.00;72.50;;;;;;5086157;28;20025;-93
2023/07/24 11:29:11;;;;;;;28.50;26.13;;;38.90;72.90;;;;;;5071046;28;20048;-94
2023/07/24 11:31:54;;;;;;;28.98;26.35;;;39.00;72.90;;;;;;5094754;28;20024;-93
2023/07/24 11:34:20;;;;;;;;;;;39.30;72.00;;;;;;5073457;28;20032;-92
2023/07/24 11:36:47;;;;;;;27.77;25.70;;;39.20;72.60;;;;;;5089990;28;19908;-93
2023/07/24 11:39:13;;;;;;;27.38;25.05;;;39.30;72.20;;;;;;5073184;28;20123;-93
2023/07/24 11:41:40;;;;;;;29.13;26.15;;;39.40;72.30;;;;;;5089881;28;20036;-93
2023/07/24 11:44:08;;;;;;;27.40;25.25;;;39.40;72.40;;;;;;5075003;28;20039;-94
2023/07/24 11:47:01;;;;;;;29.05;26.58;;;39.40;72.60;;;;;;5090741;28;20033;-95
2023/07/24 11:50:24;;;;;;;27.73;25.40;;;39.50;72.40;;;;;;5070334;28;20037;-95
2023/07/24 12:30:31;;;;;;;27.75;25.67;;;39.70;74.80;;;;;;5884434;23;20297;-92
2023/07/24 12:42:09;;;;;;;28.63;26.30;;;39.00;76.60;;;;;;5360772;23;20056;-92
2023/07/24 12:50:36;;;;;;;28.83;26.23;;;38.60;76.00;;;;;;5047094;23;20509;-92
2023/07/24 12:53:05;;;;;;;28.48;26.15;;;38.70;75.40;;;;;;4928033;29;20027;-91
2023/07/24 12:55:37;;;;;;;28.05;25.52;;;38.60;75.10;;;;;;4909165;29;20032;-92
2023/07/24 12:58:06;;;;;;;27.33;25.25;;;38.90;75.00;;;;;;4888607;29;20055;-92
2023/07/24 13:00:38;;;;;;;28.92;26.48;;;38.90;74.90;;;;;;4919448;29;20024;-92
2023/07/24 13:03:05;;;;;;;28.58;26.23;;;38.80;73.90;;;;;;4905515;29;20064;-92
2023/07/24 13:15:31;;;;;;;28.70;25.77;;;38.40;74.80;;;;;;4929228;29;20046;-93
2023/07/24 13:21:50;;;;;;;28.15;25.80;;;38.50;74.40;;;;;;4790022;29;20039;-90
